Time;durP1;ratioP1;P1;durP2;ratioP2;P2;SDS_P1;SDS_P2;PMS_P1;PMS_P2;Temp;Humidity;BMP_temperature;BMP_pressure;BME280_temperature;BME280_humidity;BME280_pressure;Samples;Min_cycle;Max_cycle;Signal;HPM_P1;HPM_P2
2022/06/23 00:02:21;;;;;;;16.92;8.50;;;23.10;54.10;;;;;;4912552;29;20109;-71
2022/06/23 00:04:49;;;;;;;17.30;8.13;;;23.10;54.10;;;;;;4896160;29;20028;-71
2022/06/23 00:07:31;;;;;;;15.02;7.25;;;23.10;54.10;;;;;;4881282;29;20039;-70
2022/06/23 00:09:58;;;;;;;9.75;4.13;;;23.10;54.10;;;;;;4915101;29;20032;-71
2022/06/23 00:12:37;;;;;;;15.95;7.85;;;23.10;53.80;;;;;;4915213;29;20028;-71
2022/06/23 00:15:02;;;;;;;38.65;24.10;;;23.10;54.50;;;;;;4897990;29;20040;-71
2022/06/23 00:17:42;;;;;;;43.65;25.88;;;23.10;54.20;;;;;;4914777;29;20489;-70
2022/06/23 00:20:20;;;;;;;36.40;21.90;;;23.10;54.00;;;;;;4915072;29;20032;-71
2022/06/23 00:22:52;;;;;;;29.20;17.63;;;23.00;53.60;;;;;;4897896;29;20048;-69
2022/06/23 00:25:58;;;;;;;28.95;17.63;;;23.00;54.00;;;;;;4915083;29;20377;-69
2022/06/23 00:28:32;;;;;;;25.65;16.17;;;23.10;53.60;;;;;;4902009;29;20092;-69
2022/06/23 00:31:09;;;;;;;24.38;14.85;;;23.20;53.40;;;;;;4914970;29;20161;-70
2022/06/23 00:33:41;;;;;;;26.55;15.30;;;23.20;53.30;;;;;;4915250;29;20039;-70
2022/06/23 00:36:17;;;;;;;24.75;14.75;;;23.30;53.10;;;;;;4914091;29;20433;-69
2022/06/23 00:38:43;;;;;;;21.92;13.63;;;23.30;53.10;;;;;;4914783;29;20028;-69
2022/06/23 00:41:16;;;;;;;25.77;15.07;;;23.30;52.90;;;;;;4914819;29;20025;-69
2022/06/23 00:43:46;;;;;;;23.70;13.35;;;23.30;52.90;;;;;;4913452;29;20079;-69
2022/06/23 00:46:30;;;;;;;22.58;12.82;;;23.30;52.80;;;;;;4914532;29;20082;-69
2022/06/23 00:49:01;;;;;;;20.17;10.98;;;23.30;53.00;;;;;;4913612;29;20036;-70
2022/06/23 00:51:43;;;;;;;23.60;12.32;;;23.30;52.90;;;;;;4898436;29;20024;-69
2022/06/23 00:54:15;;;;;;;18.73;10.70;;;23.30;52.70;;;;;;4914510;29;20385;-69
2022/06/23 00:57:20;;;;;;;21.50;12.70;;;23.30;52.80;;;;;;4897611;29;20025;-69
2022/06/23 00:59:56;;;;;;;19.48;10.18;;;23.30;52.80;;;;;;4905770;29;20095;-69
2022/06/23 01:02:33;;;;;;;18.80;11.15;;;23.30;52.60;;;;;;4915083;29;20039;-69
2022/06/23 01:05:13;;;;;;;20.00;11.10;;;23.30;52.60;;;;;;4914510;29;20043;-69
2022/06/23 01:08:11;;;;;;;16.48;9.60;;;23.40;52.70;;;;;;4916540;29;20028;-70
2022/06/23 01:11:02;;;;;;;17.48;8.55;;;23.40;52.70;;;;;;4916852;29;20055;-70
2022/06/23 01:13:43;;;;;;;16.42;8.75;;;23.30;52.60;;;;;;4918184;29;20028;-69
2022/06/23 01:16:24;;;;;;;15.85;8.10;;;23.30;52.50;;;;;;4900968;29;20032;-69
2022/06/23 01:18:53;;;;;;;16.65;8.80;;;23.40;52.50;;;;;;4916953;29;20044;-69
2022/06/23 01:21:28;;;;;;;16.20;8.98;;;23.30;52.50;;;;;;4918009;29;20044;-69
2022/06/23 01:24:12;;;;;;;15.55;8.10;;;23.40;52.40;;;;;;4901384;29;20170;-69
2022/06/23 01:26:59;;;;;;;18.17;9.30;;;23.30;52.50;;;;;;4917848;29;20103;-69
2022/06/23 01:29:29;;;;;;;14.43;7.80;;;23.30;52.40;;;;;;4901040;29;20246;-70
2022/06/23 01:32:16;;;;;;;19.88;8.73;;;23.30;52.50;;;;;;4900950;29;20036;-69
2022/06/23 01:35:03;;;;;;;16.65;7.82;;;23.30;52.40;;;;;;4917473;29;20044;-69
2022/06/23 01:37:54;;;;;;;13.20;6.95;;;23.30;52.40;;;;;;4900696;29;20075;-69
2022/06/23 01:40:28;;;;;;;13.80;7.28;;;23.30;52.40;;;;;;4917906;29;20032;-69
2022/06/23 01:43:02;;;;;;;14.52;7.82;;;23.30;52.40;;;;;;4918126;29;20055;-69
2022/06/23 01:45:42;;;;;;;12.68;6.43;;;23.30;52.40;;;;;;4900789;29;20050;-69
2022/06/23 01:51:30;;;;;;;12.18;6.30;;;23.30;52.30;;;;;;4917479;29;20118;-69
2022/06/23 01:54:12;;;;;;;10.90;6.13;;;23.30;52.40;;;;;;4917677;29;20111;-69
2022/06/23 01:56:59;;;;;;;12.77;6.30;;;23.30;52.40;;;;;;4917258;29;20031;-69
2022/06/23 01:59:47;;;;;;;11.98;6.13;;;23.30;52.30;;;;;;4917517;29;20520;-69
2022/06/23 02:02:51;;;;;;;11.02;5.70;;;23.30;52.30;;;;;;4917390;29;20158;-70
2022/06/23 02:06:02;;;;;;;10.23;5.05;;;23.30;52.30;;;;;;4900078;29;20036;-69
2022/06/23 02:08:41;;;;;;;8.35;5.38;;;23.30;52.30;;;;;;4861965;29;20806;-70
2022/06/23 02:11:29;;;;;;;11.77;5.40;;;23.30;52.30;;;;;;4876879;29;20074;-69
2022/06/23 02:14:19;;;;;;;10.98;5.28;;;23.30;52.90;;;;;;4895580;29;20044;-70
2022/06/23 02:17:17;;;;;;;10.13;4.38;;;23.30;52.20;;;;;;4917157;29;20028;-70
2022/06/23 02:19:51;;;;;;;11.85;5.32;;;23.30;52.30;;;;;;4907596;29;20091;-70
2022/06/23 02:22:31;;;;;;;10.13;4.93;;;23.30;52.30;;;;;;4917164;29;20032;-70
2022/06/23 02:25:15;;;;;;;9.68;5.13;;;23.30;52.30;;;;;;4917069;29;20032;-70
2022/06/23 02:28:03;;;;;;;10.75;4.90;;;23.30;52.30;;;;;;4899882;29;20039;-70
2022/06/23 02:30:31;;;;;;;11.20;4.93;;;23.30;52.30;;;;;;4916992;29;20028;-69
2022/06/23 02:32:59;;;;;;;7.78;4.00;;;23.30;52.30;;;;;;4916902;29;20064;-70
2022/06/23 02:35:34;;;;;;;11.88;4.95;;;23.30;52.30;;;;;;4899668;29;20042;-69
2022/06/23 02:38:29;;;;;;;9.45;4.43;;;23.30;52.40;;;;;;4916542;29;20501;-69
2022/06/23 02:41:08;;;;;;;10.10;4.78;;;23.30;52.30;;;;;;4916712;29;20028;-70
2022/06/23 02:43:56;;;;;;;9.57;4.25;;;23.30;52.30;;;;;;4899876;29;20064;-69
2022/06/23 02:46:57;;;;;;;9.05;4.32;;;23.30;52.50;;;;;;4916069;29;20207;-70
2022/06/23 02:50:07;;;;;;;9.07;4.03;;;23.30;52.20;;;;;;4899933;29;20044;-71
2022/06/23 02:52:58;;;;;;;8.13;3.95;;;23.30;52.10;;;;;;4861462;29;20137;-69
2022/06/23 02:56:07;;;;;;;7.93;3.92;;;23.30;52.20;;;;;;4876579;29;20033;-69
2022/06/23 02:59:05;;;;;;;8.70;3.95;;;23.30;52.20;;;;;;4915271;29;20415;-70
2022/06/23 03:01:44;;;;;;;6.47;3.90;;;23.30;52.20;;;;;;4899507;29;20127;-70
2022/06/23 03:04:35;;;;;;;9.65;4.05;;;23.30;52.20;;;;;;4899729;29;20047;-69
2022/06/23 03:07:27;;;;;;;8.68;3.58;;;23.30;52.10;;;;;;4915811;29;20555;-69
2022/06/23 03:10:20;;;;;;;8.27;3.60;;;23.30;52.20;;;;;;4908954;29;20068;-70
2022/06/23 03:13:20;;;;;;;5.72;3.22;;;23.30;52.10;;;;;;4916257;29;20527;-70
2022/06/23 03:16:05;;;;;;;9.23;3.33;;;23.30;52.10;;;;;;4900732;29;20024;-70
2022/06/23 03:18:39;;;;;;;6.80;3.30;;;23.30;52.10;;;;;;4899105;29;20058;-69
2022/06/23 03:21:21;;;;;;;10.63;3.63;;;23.30;52.10;;;;;;4883692;29;20118;-69
2022/06/23 03:23:57;;;;;;;6.28;3.60;;;23.30;52.10;;;;;;4916092;29;20032;-70
2022/06/23 03:26:29;;;;;;;8.35;3.97;;;23.30;52.10;;;;;;4915310;29;20403;-70
2022/06/23 03:29:16;;;;;;;7.43;3.13;;;23.30;52.00;;;;;;4898869;29;20399;-69
2022/06/23 03:31:46;;;;;;;4.07;3.10;;;23.30;52.00;;;;;;4915957;29;20111;-69
2022/06/23 03:34:34;;;;;;;6.05;3.20;;;23.30;52.10;;;;;;4899091;29;20060;-70
2022/06/23 03:37:28;;;;;;;7.60;3.38;;;23.30;52.00;;;;;;4915402;29;20489;-70
2022/06/23 03:43:21;;;;;;;6.13;3.30;;;23.30;52.00;;;;;;4915705;29;20114;-70
2022/06/23 03:46:00;;;;;;;6.07;3.05;;;23.30;52.10;;;;;;4915218;29;20036;-70
2022/06/23 03:48:54;;;;;;;6.20;3.15;;;23.30;52.10;;;;;;4915576;29;20024;-70
2022/06/23 03:51:31;;;;;;;7.53;3.15;;;23.30;52.00;;;;;;4915415;29;20039;-70
2022/06/23 03:54:06;;;;;;;6.18;2.83;;;23.30;52.10;;;;;;4915527;29;20035;-69
2022/06/23 03:56:45;;;;;;;4.38;2.60;;;23.30;52.10;;;;;;4914015;29;20028;-69
2022/06/23 03:59:40;;;;;;;5.23;2.73;;;23.30;52.00;;;;;;4899743;29;20489;-69
2022/06/23 04:02:20;;;;;;;7.13;3.10;;;23.30;52.10;;;;;;4896700;29;20300;-70
2022/06/23 04:04:53;;;;;;;5.82;2.90;;;23.30;52.10;;;;;;4915523;29;20028;-69
2022/06/23 04:07:28;;;;;;;5.88;2.63;;;23.30;52.10;;;;;;4898019;29;20036;-69
2022/06/23 04:10:06;;;;;;;5.97;2.78;;;23.30;52.10;;;;;;4898130;29;20103;-69
2022/06/23 04:12:34;;;;;;;5.78;2.85;;;23.30;52.10;;;;;;4883008;29;20036;-70
2022/06/23 04:15:08;;;;;;;7.13;2.83;;;23.30;52.10;;;;;;4915551;29;20028;-70
2022/06/23 04:17:54;;;;;;;7.30;2.90;;;23.30;52.10;;;;;;4914829;29;20485;-69
2022/06/23 04:20:34;;;;;;;6.32;2.97;;;23.30;52.20;;;;;;4898320;29;20032;-69
2022/06/23 04:23:18;;;;;;;5.22;2.88;;;23.30;52.10;;;;;;4867364;29;20146;-69
2022/06/23 04:25:59;;;;;;;9.55;3.15;;;23.30;52.10;;;;;;4914806;29;20035;-69
2022/06/23 04:28:34;;;;;;;7.20;2.70;;;23.30;52.70;;;;;;4898186;29;20035;-69
2022/06/23 04:31:04;;;;;;;6.15;3.15;;;23.30;52.10;;;;;;4914909;29;20036;-69
2022/06/23 04:33:39;;;;;;;5.30;3.00;;;23.30;52.10;;;;;;4914858;29;20107;-69
2022/06/23 04:36:06;;;;;;;4.30;2.55;;;23.30;51.80;;;;;;4914762;29;20031;-70
2022/06/23 04:38:46;;;;;;;5.78;2.78;;;23.30;52.10;;;;;;4914721;29;20032;-70
2022/06/23 04:41:29;;;;;;;6.57;2.42;;;23.30;52.20;;;;;;4915201;29;20362;-68
2022/06/23 04:44:08;;;;;;;5.68;2.92;;;23.30;52.80;;;;;;4918544;29;20035;-68
2022/06/23 04:46:41;;;;;;;6.03;2.90;;;23.30;52.20;;;;;;4918670;29;20400;-69
2022/06/23 04:49:31;;;;;;;6.03;3.08;;;23.30;52.20;;;;;;4918624;29;20556;-68
2022/06/23 04:52:12;;;;;;;7.53;3.03;;;23.30;52.10;;;;;;4918748;29;20040;-68
2022/06/23 04:54:54;;;;;;;8.70;3.72;;;23.30;52.30;;;;;;4901893;29;20028;-69
2022/06/23 04:57:28;;;;;;;6.93;3.53;;;23.30;52.20;;;;;;4919039;29;20032;-68
2022/06/23 04:59:57;;;;;;;6.53;3.17;;;23.30;52.20;;;;;;4918442;29;20028;-69
2022/06/23 05:02:41;;;;;;;6.80;3.13;;;23.30;52.20;;;;;;4901834;29;20047;-69
2022/06/23 05:05:20;;;;;;;6.47;3.17;;;23.30;52.20;;;;;;4886151;29;20032;-68
2022/06/23 05:07:48;;;;;;;8.07;3.93;;;23.30;52.20;;;;;;4885717;29;20071;-69
2022/06/23 05:10:27;;;;;;;7.47;4.18;;;23.30;52.10;;;;;;4918009;29;20107;-69
2022/06/23 05:13:00;;;;;;;6.38;3.70;;;23.30;52.10;;;;;;4918357;29;20028;-69
2022/06/23 05:15:28;;;;;;;7.68;4.00;;;23.30;52.10;;;;;;4918090;29;20036;-69
2022/06/23 05:18:17;;;;;;;7.88;4.10;;;23.30;52.10;;;;;;4901017;29;20044;-69
2022/06/23 05:20:55;;;;;;;6.55;3.65;;;23.30;52.10;;;;;;4910806;29;20072;-69
2022/06/23 05:23:27;;;;;;;10.88;4.30;;;23.40;52.00;;;;;;4901296;29;20176;-69
2022/06/23 05:25:56;;;;;;;8.73;3.63;;;23.30;52.00;;;;;;4900722;29;20112;-69
2022/06/23 05:28:26;;;;;;;11.93;3.92;;;23.40;52.00;;;;;;4918057;29;20037;-69
2022/06/23 05:30:59;;;;;;;7.80;3.83;;;23.40;52.00;;;;;;4917985;29;20032;-69
2022/06/23 05:33:35;;;;;;;7.78;3.42;;;23.40;52.00;;;;;;4917961;29;20052;-69
2022/06/23 05:36:05;;;;;;;6.82;3.58;;;23.40;52.00;;;;;;4917660;29;20103;-68
2022/06/23 05:38:46;;;;;;;7.95;3.70;;;23.40;52.00;;;;;;4918066;29;20119;-69
2022/06/23 05:41:12;;;;;;;7.25;3.90;;;23.40;52.00;;;;;;4901249;29;20233;-69
2022/06/23 05:43:40;;;;;;;7.30;4.07;;;23.40;51.90;;;;;;4917619;29;20036;-69
2022/06/23 05:46:11;;;;;;;7.15;3.65;;;23.40;51.90;;;;;;4916796;29;20032;-69
2022/06/23 05:48:41;;;;;;;9.98;3.75;;;23.40;51.90;;;;;;4917719;29;20119;-69
2022/06/23 05:51:17;;;;;;;6.32;3.28;;;23.40;51.90;;;;;;4917692;29;20032;-69
2022/06/23 05:54:07;;;;;;;8.77;4.18;;;23.40;51.90;;;;;;4916491;29;20064;-69
2022/06/23 05:56:40;;;;;;;7.28;3.83;;;23.40;51.90;;;;;;4917314;29;20088;-69
2022/06/23 05:59:26;;;;;;;9.15;3.78;;;23.40;51.90;;;;;;4917504;29;20043;-69
2022/06/23 06:02:11;;;;;;;7.82;3.55;;;23.40;51.90;;;;;;4900898;29;20489;-69
2022/06/23 06:04:48;;;;;;;7.00;3.50;;;23.40;51.90;;;;;;4917156;29;20043;-69
2022/06/23 06:07:17;;;;;;;6.05;3.08;;;23.40;51.90;;;;;;4917030;29;20047;-70
2022/06/23 06:09:43;;;;;;;;;;;23.40;52.00;;;;;;4900754;29;20621;-70
2022/06/23 06:12:19;;;;;;;9.32;3.42;;;23.40;52.00;;;;;;4917447;29;20001;-70
2022/06/23 06:14:51;;;;;;;6.65;3.88;;;23.40;51.90;;;;;;4917591;29;20425;-69
2022/06/23 06:17:21;;;;;;;7.22;3.67;;;23.40;52.00;;;;;;4916928;29;20111;-69
2022/06/23 06:19:48;;;;;;;;;;;23.40;52.00;;;;;;4917497;29;20036;-70
2022/06/23 06:22:42;;;;;;;7.97;3.55;;;23.40;52.00;;;;;;4917137;29;19911;-70
2022/06/23 06:25:22;;;;;;;7.35;3.55;;;23.40;52.00;;;;;;4916821;29;20040;-70
2022/06/23 06:27:48;;;;;;;;;;;23.40;52.10;;;;;;4917187;29;20032;-69
2022/06/23 06:30:17;;;;;;;6.50;3.33;;;23.40;52.10;;;;;;4915722;29;20299;-69
2022/06/23 06:32:44;;;;;;;6.72;3.60;;;23.40;52.10;;;;;;4916978;29;20106;-70
2022/06/23 06:35:25;;;;;;;7.93;3.33;;;23.40;52.10;;;;;;4916721;29;20028;-69
2022/06/23 06:38:06;;;;;;;6.30;3.38;;;23.40;52.10;;;;;;4916621;29;20024;-69
2022/06/23 06:40:34;;;;;;;6.78;3.45;;;23.40;52.70;;;;;;4899966;29;20079;-70
2022/06/23 06:43:09;;;;;;;7.60;3.30;;;23.40;52.00;;;;;;4916983;29;20055;-69
2022/06/23 06:45:36;;;;;;;10.48;3.95;;;23.40;52.30;;;;;;4916417;29;20032;-70
2022/06/23 06:48:12;;;;;;;8.90;3.45;;;23.40;52.40;;;;;;4884255;29;20575;-71
2022/06/23 06:50:44;;;;;;;14.35;4.20;;;23.40;52.00;;;;;;4916019;29;20035;-70
2022/06/23 06:53:23;;;;;;;12.02;3.80;;;23.40;52.20;;;;;;4916709;29;20024;-70
2022/06/23 06:55:53;;;;;;;8.57;3.80;;;23.40;52.30;;;;;;4916226;29;20035;-69
2022/06/23 06:58:25;;;;;;;10.95;4.00;;;23.50;52.50;;;;;;4916602;29;20287;-70
2022/06/23 07:00:56;;;;;;;9.27;3.70;;;23.50;53.00;;;;;;4899545;29;20036;-70
2022/06/23 07:03:24;;;;;;;11.07;3.60;;;23.50;53.40;;;;;;4916430;29;20467;-69
2022/06/23 07:05:54;;;;;;;10.13;3.55;;;23.60;53.60;;;;;;4898538;29;20459;-70
2022/06/23 07:08:42;;;;;;;9.07;3.85;;;23.60;53.60;;;;;;4916501;29;20028;-71
2022/06/23 07:11:08;;;;;;;11.27;4.70;;;23.60;53.60;;;;;;4916218;29;20143;-71
2022/06/23 07:13:48;;;;;;;20.17;6.20;;;23.60;53.60;;;;;;4899300;29;20107;-71
2022/06/23 07:16:35;;;;;;;21.17;7.22;;;23.60;55.50;;;;;;4915901;29;20031;-71
2022/06/23 07:19:12;;;;;;;34.88;8.18;;;23.70;57.90;;;;;;4915986;29;20037;-70
2022/06/23 07:21:49;;;;;;;17.27;3.65;;;23.70;64.30;;;;;;4915895;29;20051;-70
2022/06/23 07:24:17;;;;;;;19.80;5.32;;;23.30;55.50;;;;;;4899208;29;20162;-70
2022/06/23 07:26:55;;;;;;;10.48;3.28;;;23.30;55.90;;;;;;4915539;29;20055;-70
2022/06/23 07:29:36;;;;;;;7.68;3.08;;;23.10;52.60;;;;;;4915974;29;20032;-71
2022/06/23 07:32:19;;;;;;;11.90;3.58;;;23.00;51.70;;;;;;4896727;29;20299;-71
2022/06/23 07:34:51;;;;;;;15.05;3.85;;;23.00;53.40;;;;;;4915936;29;20035;-71
2022/06/23 07:37:26;;;;;;;11.02;3.50;;;23.20;53.50;;;;;;4898552;29;20029;-71
2022/06/23 07:40:01;;;;;;;14.32;3.65;;;23.30;53.50;;;;;;4898796;29;20092;-71
2022/06/23 07:43:04;;;;;;;10.05;3.58;;;23.40;53.50;;;;;;4883400;29;20036;-72
2022/06/23 07:45:46;;;;;;;13.05;3.40;;;23.40;53.30;;;;;;4915534;29;20093;-72
2022/06/23 07:48:12;;;;;;;11.80;3.85;;;23.50;53.20;;;;;;4898763;29;20028;-71
2022/06/23 07:50:38;;;;;;;12.55;3.75;;;23.50;53.10;;;;;;4915441;29;20035;-72
2022/06/23 07:53:06;;;;;;;9.20;3.20;;;23.50;53.10;;;;;;4915345;29;20020;-72
2022/06/23 07:55:40;;;;;;;16.65;3.42;;;23.50;53.00;;;;;;4914543;29;20024;-72
2022/06/23 07:58:07;;;;;;;13.48;3.25;;;23.50;52.90;;;;;;4897273;29;20060;-71
2022/06/23 08:00:37;;;;;;;12.23;3.42;;;23.50;52.90;;;;;;4882722;29;20626;-71
2022/06/23 08:03:14;;;;;;;7.47;3.28;;;23.50;53.00;;;;;;4915200;29;20103;-72
2022/06/23 08:05:54;;;;;;;11.70;3.22;;;23.50;52.90;;;;;;4914924;29;20031;-71
2022/06/23 08:08:23;;;;;;;10.40;3.15;;;23.50;53.50;;;;;;4898458;29;20067;-72
2022/06/23 08:12:53;;;;;;;15.40;2.90;;;23.60;52.80;;;;;;4898389;29;20040;-72
2022/06/23 08:13:51;;;;;;;11.38;2.90;;;23.60;52.80;;;;;;4915186;29;20028;-72
2022/06/23 08:19:15;;;;;;;9.07;2.72;;;23.50;52.80;;;;;;4915010;29;20031;-70
2022/06/23 08:21:55;;;;;;;10.82;3.60;;;23.50;52.80;;;;;;4898424;29;20059;-71
2022/06/23 08:24:25;;;;;;;;;;;23.60;52.90;;;;;;4898624;29;20028;-71
2022/06/23 08:26:55;;;;;;;7.93;2.70;;;23.50;52.80;;;;;;4914789;29;19911;-72
2022/06/23 08:29:27;;;;;;;7.88;3.20;;;23.50;52.80;;;;;;4898164;29;20032;-72
2022/06/23 08:31:53;;;;;;;7.93;2.90;;;23.50;53.40;;;;;;4915110;29;20032;-71
2022/06/23 08:34:19;;;;;;;8.43;2.85;;;23.50;52.80;;;;;;4898054;29;20034;-72
2022/06/23 08:36:48;;;;;;;9.60;3.20;;;23.50;52.80;;;;;;4914685;29;20131;-72
2022/06/23 08:39:38;;;;;;;7.18;2.85;;;23.50;52.90;;;;;;4915124;29;20042;-72
2022/06/23 08:42:25;;;;;;;7.45;3.13;;;23.50;52.80;;;;;;4915026;29;20064;-72
2022/06/23 08:45:01;;;;;;;6.03;2.83;;;23.50;52.80;;;;;;4897884;29;20039;-72
2022/06/23 08:47:53;;;;;;;7.93;3.10;;;23.50;52.80;;;;;;4897649;29;20493;-72
2022/06/23 08:50:41;;;;;;;7.25;2.50;;;23.50;52.80;;;;;;4915041;29;20056;-72
2022/06/23 08:53:28;;;;;;;7.90;2.80;;;23.50;52.80;;;;;;4914916;29;20032;-71
2022/06/23 08:56:02;;;;;;;7.18;2.78;;;23.50;52.80;;;;;;4882415;29;20084;-72
2022/06/23 08:58:50;;;;;;;6.35;2.97;;;23.50;52.80;;;;;;4915153;29;20469;-72
2022/06/23 09:01:34;;;;;;;6.07;2.60;;;23.50;52.70;;;;;;4882641;29;20046;-72
2022/06/23 09:04:27;;;;;;;8.13;2.50;;;23.50;52.80;;;;;;4914749;29;20099;-71
2022/06/23 09:07:09;;;;;;;7.75;2.58;;;23.50;52.70;;;;;;4897695;29;20048;-72
2022/06/23 09:09:53;;;;;;;6.00;2.50;;;23.50;52.70;;;;;;4882325;29;20553;-72
2022/06/23 09:12:31;;;;;;;4.88;2.40;;;23.50;52.70;;;;;;4882299;29;20036;-72
2022/06/23 09:15:15;;;;;;;8.65;2.63;;;23.50;52.70;;;;;;4897923;29;20044;-72
2022/06/23 09:18:08;;;;;;;6.63;2.80;;;23.50;52.70;;;;;;4866454;29;20040;-72
2022/06/23 09:21:00;;;;;;;4.28;2.42;;;23.50;52.70;;;;;;4897700;29;20039;-71
2022/06/23 09:23:48;;;;;;;6.30;2.70;;;23.60;52.60;;;;;;4913527;29;20123;-72
2022/06/23 09:26:19;;;;;;;6.07;2.30;;;23.60;52.60;;;;;;4881695;29;20051;-72
2022/06/23 09:28:56;;;;;;;4.80;2.60;;;23.60;52.60;;;;;;4916818;29;20507;-72
2022/06/23 09:31:58;;;;;;;5.70;2.10;;;23.60;52.50;;;;;;4918101;29;20036;-71
2022/06/23 09:34:49;;;;;;;5.53;2.20;;;23.60;52.50;;;;;;4917870;29;20482;-71
2022/06/23 09:37:31;;;;;;;5.72;2.40;;;23.60;52.40;;;;;;4900838;29;20033;-71
2022/06/23 09:40:22;;;;;;;3.88;2.42;;;23.60;52.40;;;;;;4918116;29;20488;-71
2022/06/23 09:43:22;;;;;;;4.57;2.25;;;23.60;52.30;;;;;;4917442;29;20394;-71
2022/06/23 09:46:18;;;;;;;8.13;2.28;;;23.60;52.30;;;;;;4900383;29;20050;-71
2022/06/23 09:49:02;;;;;;;4.80;2.40;;;23.60;52.30;;;;;;4917728;29;20043;-71
2022/06/23 09:51:46;;;;;;;5.45;2.65;;;23.60;52.30;;;;;;4900880;29;20032;-71
2022/06/23 09:54:27;;;;;;;5.53;2.33;;;23.60;52.20;;;;;;4900886;29;20049;-71
2022/06/23 09:57:08;;;;;;;4.82;2.30;;;23.60;52.20;;;;;;4917625;29;20038;-72
2022/06/23 10:00:04;;;;;;;7.35;2.47;;;23.60;52.20;;;;;;4917571;29;20039;-72
2022/06/23 10:02:52;;;;;;;6.35;2.78;;;23.60;52.10;;;;;;4916419;29;20497;-72
2022/06/23 10:05:43;;;;;;;4.85;2.20;;;23.60;52.10;;;;;;4884967;29;20030;-71
2022/06/23 10:08:42;;;;;;;5.13;2.60;;;23.60;52.10;;;;;;4900559;29;20071;-71
2022/06/23 10:11:20;;;;;;;5.28;2.17;;;23.60;52.10;;;;;;4910294;29;20048;-71
2022/06/23 10:14:13;;;;;;;4.82;2.30;;;23.60;52.10;;;;;;4917571;29;20048;-72
2022/06/23 10:16:42;;;;;;;7.60;2.30;;;23.60;52.00;;;;;;4917226;29;20123;-71
2022/06/23 10:19:38;;;;;;;5.65;2.30;;;23.60;52.00;;;;;;4917211;29;20036;-72
2022/06/23 10:22:31;;;;;;;7.93;2.22;;;23.60;52.00;;;;;;4916967;29;20035;-71
2022/06/23 10:24:57;;;;;;;5.95;2.38;;;23.60;51.90;;;;;;4917436;29;20461;-72
2022/06/23 10:27:42;;;;;;;8.25;2.72;;;23.60;51.90;;;;;;4916974;29;20032;-71
2022/06/23 10:30:17;;;;;;;2.50;1.70;;;23.60;51.90;;;;;;4916892;29;20035;-72
2022/06/23 10:33:21;;;;;;;3.58;1.95;;;23.60;52.00;;;;;;4900130;29;20036;-71
2022/06/23 10:36:07;;;;;;;5.78;2.50;;;23.60;52.00;;;;;;4916800;29;20103;-72
2022/06/23 10:39:16;;;;;;;5.40;2.28;;;23.60;52.00;;;;;;4900232;29;20040;-72
2022/06/23 10:41:44;;;;;;;4.55;2.30;;;23.60;52.00;;;;;;4876558;29;20117;-71
2022/06/23 10:44:33;;;;;;;4.57;2.10;;;23.60;52.00;;;;;;4861440;29;20037;-71
2022/06/23 10:47:27;;;;;;;5.15;2.03;;;23.60;52.00;;;;;;4901912;29;20063;-72
2022/06/23 10:50:27;;;;;;;5.07;2.00;;;23.60;52.00;;;;;;4916670;29;20043;-72
2022/06/23 10:53:28;;;;;;;3.85;2.25;;;23.60;52.00;;;;;;4899990;29;20036;-72
2022/06/23 10:56:06;;;;;;;4.78;2.00;;;23.60;52.00;;;;;;4897718;29;20040;-72
2022/06/23 10:58:47;;;;;;;5.95;2.03;;;23.60;52.00;;;;;;4916572;29;20638;-71
2022/06/23 11:01:39;;;;;;;5.03;2.33;;;23.60;52.00;;;;;;4899494;29;20084;-71
2022/06/23 11:04:17;;;;;;;4.28;1.98;;;23.60;51.90;;;;;;4916592;29;20516;-71
2022/06/23 11:07:05;;;;;;;4.78;2.10;;;23.60;51.90;;;;;;4898972;29;20088;-71
2022/06/23 11:09:48;;;;;;;4.65;1.92;;;23.60;51.80;;;;;;4916500;29;20456;-71
2022/06/23 11:12:27;;;;;;;6.10;2.72;;;23.60;51.90;;;;;;4899345;29;20340;-72
2022/06/23 11:15:05;;;;;;;8.93;2.45;;;23.60;51.90;;;;;;4915784;29;20039;-72
2022/06/23 11:18:00;;;;;;;3.92;2.05;;;23.60;51.70;;;;;;4915527;29;20066;-72
2022/06/23 11:20:44;;;;;;;6.63;2.20;;;23.60;51.70;;;;;;4916014;29;20119;-72
2022/06/23 11:23:30;;;;;;;4.60;2.50;;;23.60;51.70;;;;;;4916120;29;20160;-71
2022/06/23 11:26:18;;;;;;;5.15;2.40;;;23.60;51.70;;;;;;4915950;29;20028;-72
2022/06/23 11:29:25;;;;;;;7.38;3.00;;;23.70;51.80;;;;;;4899215;29;20035;-71
2022/06/23 11:32:06;;;;;;;6.78;2.55;;;23.70;52.00;;;;;;4916266;29;20032;-72
2022/06/23 11:34:49;;;;;;;9.02;2.80;;;23.70;52.60;;;;;;4916247;29;20032;-72
2022/06/23 11:37:41;;;;;;;10.02;2.80;;;23.70;52.80;;;;;;4915141;29;20044;-71
2022/06/23 11:40:18;;;;;;;10.68;2.50;;;23.80;53.50;;;;;;4915762;29;20492;-71
2022/06/23 11:43:12;;;;;;;9.98;2.75;;;23.80;53.20;;;;;;4915705;29;20032;-71
2022/06/23 11:46:01;;;;;;;17.23;2.35;;;23.80;53.50;;;;;;4915183;29;20512;-71
2022/06/23 11:48:42;;;;;;;6.53;2.35;;;23.80;53.70;;;;;;4907029;29;20151;-72
2022/06/23 12:09:17;;;;;;;6.47;3.63;;;23.90;54.20;;;;;;5085638;28;20459;-72
2022/06/23 12:11:43;;;;;;;7.15;3.70;;;24.00;55.40;;;;;;5014618;28;136892;-71
2022/06/23 12:14:09;;;;;;;7.32;3.65;;;24.00;55.60;;;;;;5004534;28;20113;-71
2022/06/23 12:16:49;;;;;;;7.85;3.78;;;24.00;56.70;;;;;;5004374;28;20032;-70
2022/06/23 12:19:17;;;;;;;;;;;24.00;57.40;;;;;;5003312;28;20037;-71
2022/06/23 12:22:11;;;;;;;6.63;3.10;;;24.10;57.50;;;;;;5005037;28;20090;-71
2022/06/23 12:24:50;;;;;;;7.22;3.42;;;24.10;57.20;;;;;;5006231;28;20034;-71
2022/06/23 12:27:28;;;;;;;11.18;3.53;;;24.10;57.60;;;;;;5001418;28;20405;-70
2022/06/23 12:30:13;;;;;;;6.70;3.00;;;24.10;58.80;;;;;;5006863;28;20030;-71
2022/06/23 12:32:47;;;;;;;4.82;2.63;;;24.10;58.40;;;;;;5003659;28;20034;-71
2022/06/23 12:35:21;;;;;;;11.95;2.85;;;24.10;58.00;;;;;;5005888;28;20042;-71
2022/06/23 12:37:58;;;;;;;12.82;4.13;;;24.20;55.20;;;;;;5006122;28;20034;-71
2022/06/23 12:40:33;;;;;;;27.63;20.13;;;24.40;50.80;;;;;;5020474;28;20042;-71
2022/06/23 12:43:28;;;;;;;8.15;3.42;;;24.60;50.30;;;;;;5005986;28;20141;-72
2022/06/23 12:46:15;;;;;;;17.95;10.05;;;24.80;44.50;;;;;;4998865;28;20121;-72
2022/06/23 12:49:00;;;;;;;13.13;5.60;;;24.70;47.90;;;;;;5004218;28;20057;-71
2022/06/23 12:51:52;;;;;;;7.63;3.33;;;24.90;44.80;;;;;;5004761;28;20041;-72
2022/06/23 12:54:39;;;;;;;10.70;5.45;;;25.00;42.80;;;;;;4971910;28;20030;-71
2022/06/23 12:57:11;;;;;;;;;;;24.90;44.90;;;;;;5004773;28;20040;-72
2022/06/23 13:00:12;;;;;;;5.90;3.03;;;24.90;45.20;;;;;;5005726;28;19971;-71
2022/06/23 13:03:12;;;;;;;7.15;3.05;;;25.00;45.40;;;;;;4999385;28;20506;-71
2022/06/23 13:05:48;;;;;;;6.60;3.53;;;25.00;42.60;;;;;;5003356;28;20113;-71
2022/06/23 13:08:29;;;;;;;10.43;3.25;;;24.90;44.40;;;;;;4988083;28;20490;-71
2022/06/23 13:11:06;;;;;;;8.82;3.13;;;24.90;44.00;;;;;;4987543;28;20053;-72
2022/06/23 13:13:53;;;;;;;5.85;3.10;;;24.90;44.20;;;;;;5005580;28;20041;-72
2022/06/23 13:16:26;;;;;;;8.32;2.80;;;24.80;44.00;;;;;;4987190;28;20520;-73
2022/06/23 13:19:08;;;;;;;9.48;3.00;;;24.80;44.70;;;;;;5000690;28;20081;-72
2022/06/23 13:21:46;;;;;;;6.95;2.50;;;24.80;44.60;;;;;;4991100;28;20476;-72
2022/06/23 13:24:22;;;;;;;7.30;2.50;;;24.80;42.80;;;;;;4990828;28;20033;-72
2022/06/23 13:27:04;;;;;;;9.65;3.10;;;24.80;44.00;;;;;;4971504;28;20537;-72
2022/06/23 13:29:39;;;;;;;6.15;2.72;;;24.70;44.80;;;;;;4990976;28;20030;-72
2022/06/23 13:32:22;;;;;;;8.35;2.70;;;24.80;44.00;;;;;;4991090;28;20121;-73
2022/06/23 13:34:58;;;;;;;6.90;2.50;;;24.90;43.70;;;;;;4958979;28;20674;-72
2022/06/23 13:37:33;;;;;;;16.90;7.95;;;24.80;44.50;;;;;;5006497;28;20491;-74
2022/06/23 13:40:16;;;;;;;23.85;17.17;;;24.70;44.20;;;;;;4989178;28;20045;-73
2022/06/23 13:43:20;;;;;;;26.77;19.20;;;24.70;43.80;;;;;;5007583;28;20428;-74
2022/06/23 13:46:15;;;;;;;16.85;10.38;;;24.70;44.00;;;;;;4990086;28;20074;-74
2022/06/23 13:48:55;;;;;;;12.00;7.05;;;24.60;43.50;;;;;;4991484;28;20561;-73
2022/06/23 13:51:40;;;;;;;11.30;5.90;;;24.60;43.30;;;;;;4990900;28;20034;-74
2022/06/23 13:54:32;;;;;;;8.88;4.75;;;24.60;42.80;;;;;;4973829;28;20532;-74
2022/06/23 13:57:05;;;;;;;9.88;4.45;;;24.60;42.80;;;;;;4974672;28;20088;-74
2022/06/23 13:59:44;;;;;;;5.18;3.47;;;24.60;42.40;;;;;;4990519;28;20034;-74
2022/06/23 14:02:18;;;;;;;6.95;3.35;;;24.60;42.50;;;;;;4989892;28;20030;-73
2022/06/23 14:05:17;;;;;;;6.28;3.03;;;24.60;42.30;;;;;;4991625;28;20041;-72
2022/06/23 14:08:06;;;;;;;6.57;2.88;;;24.60;42.30;;;;;;4972167;28;20476;-74
2022/06/23 14:11:24;;;;;;;7.53;3.30;;;24.60;42.30;;;;;;4990540;28;20068;-73
2022/06/23 14:14:16;;;;;;;7.38;3.13;;;24.60;42.10;;;;;;4973751;28;20042;-73
2022/06/23 14:17:01;;;;;;;21.48;14.60;;;24.50;42.10;;;;;;4974353;28;20564;-72
2022/06/23 14:19:38;;;;;;;26.05;19.00;;;24.60;42.20;;;;;;4989336;28;20438;-72
2022/06/23 14:22:57;;;;;;;21.80;11.98;;;24.50;42.00;;;;;;4944531;28;20490;-72